createdAt,value
2023-04-01T00:00:37.817Z,977.62
2023-04-01T00:01:37.799Z,977.70
2023-04-01T00:02:37.876Z,977.73
2023-04-01T00:03:37.819Z,977.62
2023-04-01T00:04:37.820Z,977.70
2023-04-01T00:05:37.734Z,977.73
2023-04-01T00:06:37.720Z,977.72
2023-04-01T00:07:37.695Z,977.64
2023-04-01T00:08:37.682Z,977.78
2023-04-01T00:09:37.667Z,977.83
2023-04-01T00:10:37.638Z,977.74
2023-04-01T00:11:37.629Z,977.80
2023-04-01T00:12:37.606Z,977.81
2023-04-01T00:13:37.597Z,977.76
2023-04-01T00:14:37.576Z,977.87
2023-04-01T00:15:37.558Z,977.82
2023-04-01T00:16:37.578Z,977.88
2023-04-01T00:17:37.536Z,977.76
2023-04-01T00:18:37.508Z,977.85
2023-04-01T00:19:37.487Z,977.84
2023-04-01T00:20:37.477Z,977.82
2023-04-01T00:21:37.459Z,977.77
2023-04-01T00:22:37.442Z,977.69
2023-04-01T00:23:37.424Z,977.79
2023-04-01T00:24:37.409Z,977.70
2023-04-01T00:25:37.398Z,977.81
2023-04-01T00:26:37.388Z,977.72
2023-04-01T00:27:37.363Z,977.77
2023-04-01T00:28:37.342Z,977.71
2023-04-01T00:29:37.329Z,977.69
2023-04-01T00:30:37.322Z,977.75
2023-04-01T00:31:37.322Z,977.72
2023-04-01T00:32:37.317Z,977.76
2023-04-01T00:33:37.266Z,977.65
2023-04-01T00:34:37.249Z,977.68
2023-04-01T00:35:37.230Z,977.68
2023-04-01T00:36:37.241Z,977.74
2023-04-01T00:37:37.204Z,977.68
2023-04-01T00:38:37.188Z,977.68
2023-04-01T00:39:37.173Z,977.63
2023-04-01T00:40:37.164Z,977.71
2023-04-01T00:41:37.133Z,977.68
2023-04-01T00:42:37.120Z,977.69
2023-04-01T00:43:37.118Z,977.71
2023-04-01T00:44:37.088Z,977.63
2023-04-01T00:45:37.088Z,977.67
2023-04-01T00:46:37.105Z,977.73
2023-04-01T00:47:37.099Z,977.68
2023-04-01T00:48:37.033Z,977.66
2023-04-01T00:49:37.011Z,977.71
2023-04-01T00:50:36.987Z,977.68
2023-04-01T00:51:36.971Z,977.68
2023-04-01T00:52:36.954Z,977.62
2023-04-01T00:53:36.938Z,977.67
2023-04-01T00:56:18.144Z,977.67
2023-04-01T00:57:18.164Z,977.67
2023-04-01T01:04:52.474Z,977.62
2023-04-01T01:05:52.598Z,977.61
2023-04-01T01:08:15.336Z,977.69
2023-04-01T01:09:15.269Z,977.69
2023-04-01T01:10:15.309Z,977.64
2023-04-01T01:11:15.356Z,977.59
2023-04-01T01:12:15.241Z,977.63
2023-04-01T01:13:15.385Z,977.53
2023-04-01T01:14:15.197Z,977.51
2023-04-01T01:15:15.213Z,977.51
2023-04-01T01:16:15.260Z,977.57
2023-04-01T01:17:15.139Z,977.45
2023-04-01T01:18:15.122Z,977.70
2023-04-01T01:19:15.106Z,977.52
2023-04-01T01:20:25.520Z,977.56
2023-04-01T01:21:15.074Z,977.45
2023-04-01T01:22:15.100Z,977.56
2023-04-01T01:23:15.086Z,977.64
2023-04-01T01:24:15.052Z,977.57
2023-04-01T01:25:15.118Z,977.63
2023-04-01T01:26:14.989Z,977.56
2023-04-01T01:27:14.978Z,977.63
2023-04-01T01:28:14.961Z,977.60
2023-04-01T01:29:14.943Z,977.60
2023-04-01T01:30:14.934Z,977.60
2023-04-01T01:31:14.937Z,977.55
2023-04-01T01:32:14.896Z,977.58
2023-04-01T01:33:14.902Z,977.56
2023-04-01T01:34:14.869Z,977.66
2023-04-01T01:35:14.840Z,977.53
2023-04-01T01:36:14.840Z,977.51
2023-04-01T01:37:14.810Z,977.47
2023-04-01T01:38:14.797Z,977.52
2023-04-01T01:39:14.788Z,977.55
2023-04-01T01:40:14.770Z,977.44
2023-04-01T01:41:14.746Z,977.49
2023-04-01T01:42:14.739Z,977.48
2023-04-01T01:43:14.712Z,977.50
2023-04-01T01:44:14.700Z,977.54
2023-04-01T01:45:14.696Z,977.59
2023-04-01T01:46:14.727Z,977.50
2023-04-01T01:47:14.647Z,977.57
2023-04-01T01:48:14.631Z,977.50
2023-04-01T01:49:14.617Z,977.55
2023-04-01T01:50:14.602Z,977.60
2023-04-01T01:51:14.583Z,977.56
2023-04-01T01:52:14.566Z,977.55
2023-04-01T01:53:14.557Z,977.55
2023-04-01T01:54:14.530Z,977.54
2023-04-01T01:55:14.511Z,977.55
2023-04-01T01:56:14.499Z,977.49
2023-04-01T01:57:14.497Z,977.57
2023-04-01T01:58:14.473Z,977.50
2023-04-01T01:59:14.452Z,977.48
2023-04-01T02:00:14.450Z,977.49
2023-04-01T02:01:14.470Z,977.43
2023-04-01T02:02:14.435Z,977.50
2023-04-01T02:03:14.389Z,977.51
2023-04-01T02:04:14.437Z,977.51
2023-04-01T02:05:14.353Z,977.54
2023-04-01T02:06:14.402Z,977.58
2023-04-01T02:07:14.317Z,977.49
2023-04-01T02:08:14.313Z,977.49
2023-04-01T02:09:14.291Z,977.47
2023-04-01T02:10:14.271Z,977.48
2023-04-01T02:11:14.257Z,977.52
2023-04-01T02:13:14.224Z,977.58
2023-04-01T02:14:14.206Z,977.59
2023-04-01T02:15:14.191Z,977.59
2023-04-01T02:16:14.231Z,977.58
2023-04-01T02:17:14.184Z,977.53
2023-04-01T02:18:14.141Z,977.53
2023-04-01T02:19:14.236Z,977.58
2023-04-01T02:20:14.105Z,977.50
2023-04-01T02:21:14.150Z,977.49
2023-04-01T02:22:14.074Z,977.56
2023-04-01T02:23:14.056Z,977.56
2023-04-01T02:24:14.064Z,977.53
2023-04-01T02:25:14.034Z,977.53
2023-04-01T02:26:14.016Z,977.62
2023-04-01T02:27:14.021Z,977.57
2023-04-01T02:28:13.981Z,977.50
2023-04-01T02:29:13.957Z,977.52
2023-04-01T02:30:13.985Z,977.58
2023-04-01T02:31:13.951Z,977.61
2023-04-01T02:32:13.906Z,977.52
2023-04-01T02:33:14.003Z,977.46
2023-04-01T02:34:13.878Z,977.55
2023-04-01T02:35:13.865Z,977.56
2023-04-01T02:36:13.843Z,977.61
2023-04-01T02:37:13.830Z,977.56
2023-04-01T02:38:13.809Z,977.54
2023-04-01T02:39:13.792Z,977.54
2023-04-01T02:40:13.787Z,977.59
2023-04-01T02:41:13.759Z,977.58
2023-04-01T02:42:13.741Z,977.52
2023-04-01T02:43:13.752Z,977.67
2023-04-01T02:44:13.707Z,977.61
2023-04-01T02:45:13.702Z,977.59
2023-04-01T02:46:13.702Z,977.65
2023-04-01T02:47:13.667Z,977.61
2023-04-01T02:48:13.833Z,977.65
2023-04-01T02:49:13.636Z,977.66
2023-04-01T02:50:13.616Z,977.63
2023-04-01T02:51:13.600Z,977.66
2023-04-01T02:52:13.581Z,977.62
2023-04-01T02:53:13.564Z,977.57
2023-04-01T02:54:13.550Z,977.61
2023-04-01T02:55:13.537Z,977.55
2023-04-01T02:56:13.521Z,977.60
2023-04-01T02:57:13.544Z,977.70
2023-04-01T02:58:13.507Z,977.60
2023-04-01T02:59:13.470Z,977.64
2023-04-01T03:00:13.452Z,977.57
2023-04-01T03:01:13.470Z,977.54
2023-04-01T03:02:13.437Z,977.50
2023-04-01T03:03:13.444Z,977.61
2023-04-01T03:04:13.409Z,977.62
2023-04-01T03:05:13.374Z,977.53
2023-04-01T03:06:13.356Z,977.54
2023-04-01T03:07:13.382Z,977.51
2023-04-01T03:08:13.321Z,977.39
2023-04-01T03:09:13.306Z,977.48
2023-04-01T03:10:13.308Z,977.44
2023-04-01T03:11:13.275Z,977.40
2023-04-01T03:12:13.261Z,977.45
2023-04-01T03:13:13.242Z,977.44
2023-04-01T03:14:13.254Z,977.50
2023-04-01T03:15:13.213Z,977.45
2023-04-01T03:16:13.254Z,977.50
2023-04-01T03:17:13.174Z,977.38
2023-04-01T03:18:13.164Z,977.40
2023-04-01T03:19:13.148Z,977.46
2023-04-01T03:20:13.132Z,977.51
2023-04-01T03:21:13.111Z,977.47
2023-04-01T03:22:13.118Z,977.49
2023-04-01T03:23:13.084Z,977.52
2023-04-01T03:24:13.060Z,977.48
2023-04-01T03:25:13.043Z,977.47
2023-04-01T03:26:13.025Z,977.52
2023-04-01T03:27:13.010Z,977.46
2023-04-01T03:28:13.200Z,977.38
2023-04-01T03:29:12.980Z,977.46
2023-04-01T03:30:13.010Z,977.42
2023-04-01T03:31:12.997Z,977.48
2023-04-01T03:32:12.932Z,977.41
2023-04-01T03:33:12.917Z,977.50
2023-04-01T03:34:12.895Z,977.42
2023-04-01T03:35:12.879Z,977.45
2023-04-01T03:36:12.899Z,977.50
2023-04-01T03:37:12.847Z,977.47
2023-04-01T03:38:12.835Z,977.46
2023-04-01T03:39:12.812Z,977.43
2023-04-01T03:40:12.796Z,977.56
2023-04-01T03:41:12.775Z,977.54
2023-04-01T03:42:12.764Z,977.57
2023-04-01T03:43:12.777Z,977.56
2023-04-01T03:44:12.732Z,977.54
2023-04-01T03:45:12.714Z,977.45
2023-04-01T03:46:12.785Z,977.51
2023-04-01T03:47:12.678Z,977.54
2023-04-01T03:48:12.691Z,977.58
2023-04-01T03:49:12.819Z,977.57
2023-04-01T03:50:12.657Z,977.67
2023-04-01T03:51:12.613Z,977.58
2023-04-01T03:52:12.614Z,977.59
2023-04-01T03:53:12.586Z,977.52
2023-04-01T03:54:12.598Z,977.51
2023-04-01T03:55:12.580Z,977.43
2023-04-01T03:56:12.535Z,977.53
2023-04-01T03:57:12.543Z,977.57
2023-04-01T03:58:12.505Z,977.57
2023-04-01T03:59:12.508Z,977.58
2023-04-01T04:00:12.487Z,977.56
2023-04-01T04:01:12.456Z,977.58
2023-04-01T04:02:12.452Z,977.50
2023-04-01T04:03:12.505Z,977.53
2023-04-01T04:04:12.469Z,977.48
2023-04-01T04:05:12.407Z,977.63
2023-04-01T04:06:12.372Z,977.51
2023-04-01T04:07:12.359Z,977.45
2023-04-01T04:08:12.338Z,977.48
2023-04-01T04:09:12.327Z,977.52
2023-04-01T04:10:12.316Z,977.48
2023-04-01T04:11:12.295Z,977.45
2023-04-01T04:12:12.286Z,977.49
2023-04-01T04:13:12.278Z,977.45
2023-04-01T04:14:12.244Z,977.52
2023-04-01T04:15:12.237Z,977.47
2023-04-01T04:16:12.286Z,977.49
2023-04-01T04:17:12.197Z,977.49
2023-04-01T04:18:12.183Z,977.46
2023-04-01T04:19:12.164Z,977.52
2023-04-01T04:20:12.144Z,977.52
2023-04-01T04:21:12.130Z,977.42
2023-04-01T04:22:12.119Z,977.57
2023-04-01T04:23:12.098Z,977.53
2023-04-01T04:24:12.078Z,977.52
2023-04-01T04:25:12.067Z,977.47
2023-04-01T04:26:12.053Z,977.49
2023-04-01T04:27:12.030Z,977.48
2023-04-01T04:28:12.034Z,977.48
2023-04-01T04:29:11.997Z,977.51
2023-04-01T04:30:11.999Z,977.46
2023-04-01T04:31:12.034Z,977.47
2023-04-01T04:32:11.970Z,977.52
2023-04-01T04:33:11.949Z,977.51
2023-04-01T04:34:11.914Z,977.36
2023-04-01T04:35:11.900Z,977.40
2023-04-01T04:36:11.918Z,977.40
2023-04-01T04:37:11.869Z,977.52
2023-04-01T04:38:11.851Z,977.42
2023-04-01T04:39:11.835Z,977.42
2023-04-01T04:40:11.815Z,977.38
2023-04-01T04:41:11.806Z,977.40
2023-04-01T04:42:11.788Z,977.41
2023-04-01T04:43:11.776Z,977.37
2023-04-01T04:44:11.751Z,977.36
2023-04-01T04:45:11.741Z,977.35
2023-04-01T04:46:11.738Z,977.41
2023-04-01T04:47:11.870Z,977.38
2023-04-01T04:48:11.693Z,977.42
2023-04-01T04:49:11.672Z,977.36
2023-04-01T04:50:11.663Z,977.36
2023-04-01T04:51:11.638Z,977.43
2023-04-01T04:52:11.669Z,977.31
2023-04-01T04:53:11.612Z,977.35
2023-04-01T04:54:11.590Z,977.35
2023-04-01T04:55:11.577Z,977.29
2023-04-01T04:56:11.572Z,977.30
2023-04-01T04:57:11.598Z,977.42
2023-04-01T04:58:11.522Z,977.42
2023-04-01T04:59:11.547Z,977.31
2023-04-01T05:00:11.493Z,977.32
2023-04-01T05:01:11.504Z,977.25
2023-04-01T05:02:11.503Z,977.32
2023-04-01T05:03:11.523Z,977.32
2023-04-01T05:04:11.433Z,977.36
2023-04-01T05:05:11.426Z,977.29
2023-04-01T05:06:11.391Z,977.32
2023-04-01T05:07:11.378Z,977.34
2023-04-01T05:08:11.361Z,977.30
2023-04-01T05:09:11.354Z,977.28
2023-04-01T05:10:11.331Z,977.37
2023-04-01T05:11:13.622Z,977.21
2023-04-01T05:12:11.295Z,977.29
2023-04-01T05:13:11.280Z,977.28
2023-04-01T05:14:11.260Z,977.24
2023-04-01T05:15:11.251Z,977.34
2023-04-01T05:16:11.286Z,977.34
2023-04-01T05:17:11.301Z,977.30
2023-04-01T05:18:11.201Z,977.24
2023-04-01T05:19:11.181Z,977.27
2023-04-01T05:20:11.174Z,977.27
2023-04-01T05:21:11.152Z,977.32
2023-04-01T05:22:11.136Z,977.28
2023-04-01T05:23:11.115Z,977.35
2023-04-01T05:24:11.125Z,977.26
2023-04-01T05:25:11.093Z,977.20
2023-04-01T05:26:11.071Z,977.28
2023-04-01T05:27:11.052Z,977.25
2023-04-01T05:28:11.034Z,977.23
2023-04-01T05:29:11.016Z,977.24
2023-04-01T05:30:11.010Z,977.23
2023-04-01T05:31:11.056Z,977.20
2023-04-01T05:32:10.966Z,977.23
2023-04-01T05:33:10.952Z,977.25
2023-04-01T05:34:10.934Z,977.25
2023-04-01T05:35:10.930Z,977.27
2023-04-01T05:36:10.975Z,977.22
2023-04-01T05:37:10.886Z,977.31
2023-04-01T05:38:10.876Z,977.23
2023-04-01T05:39:10.862Z,977.16
2023-04-01T05:40:10.839Z,977.25
2023-04-01T05:41:10.826Z,977.31
2023-04-01T05:42:10.804Z,977.27
2023-04-01T05:43:10.788Z,977.23
2023-04-01T05:44:10.771Z,977.35
2023-04-01T05:45:10.761Z,977.35
2023-04-01T05:46:10.799Z,977.20
2023-04-01T05:47:10.722Z,977.31
2023-04-01T05:48:10.712Z,977.29
2023-04-01T05:49:10.717Z,977.27
2023-04-01T05:50:10.673Z,977.23
2023-04-01T05:51:10.661Z,977.25
2023-04-01T05:52:10.651Z,977.28
2023-04-01T05:53:10.629Z,977.21
2023-04-01T05:54:10.603Z,977.27
2023-04-01T05:55:10.589Z,977.19
2023-04-01T05:56:10.587Z,977.26
2023-04-01T05:57:10.569Z,977.24
2023-04-01T05:58:10.551Z,977.22
2023-04-01T05:59:10.520Z,977.27
2023-04-01T06:00:10.508Z,977.25
2023-04-01T06:01:15.581Z,977.37
2023-04-01T06:02:10.469Z,977.28
2023-04-01T06:03:10.544Z,977.18
2023-04-01T06:04:10.561Z,977.24
2023-04-01T06:05:10.444Z,977.21
2023-04-01T06:06:10.401Z,977.30
2023-04-01T06:07:10.392Z,977.19
2023-04-01T06:08:10.372Z,977.25
2023-04-01T06:09:10.355Z,977.24
2023-04-01T06:10:10.335Z,977.32
2023-04-01T06:11:10.321Z,977.28
2023-04-01T06:12:10.322Z,977.34
2023-04-01T06:13:10.286Z,977.19
2023-04-01T06:14:10.268Z,977.27
2023-04-01T06:15:10.252Z,977.18
2023-04-01T06:16:10.261Z,977.22
2023-04-01T06:17:10.220Z,977.22
2023-04-01T06:18:10.244Z,977.33
2023-04-01T06:19:10.186Z,977.24
2023-04-01T06:20:10.174Z,977.19
2023-04-01T06:21:10.156Z,977.31
2023-04-01T06:22:10.137Z,977.21
2023-04-01T06:23:10.205Z,977.24
2023-04-01T06:24:10.106Z,977.26
2023-04-01T06:25:10.089Z,977.27
2023-04-01T06:26:10.064Z,977.27
2023-04-01T06:27:10.050Z,977.28
2023-04-01T06:28:10.045Z,977.35
2023-04-01T06:29:10.019Z,977.28
2023-04-01T06:30:10.017Z,977.31
2023-04-01T06:31:10.060Z,977.31
2023-04-01T06:32:10.095Z,977.25
2023-04-01T06:33:09.978Z,977.24
2023-04-01T06:34:09.938Z,977.27
2023-04-01T06:35:09.921Z,977.30
2023-04-01T06:36:09.920Z,977.25
2023-04-01T06:37:09.886Z,977.27
2023-04-01T06:38:09.864Z,977.29
2023-04-01T06:39:11.212Z,977.35
2023-04-01T06:40:09.842Z,977.21
2023-04-01T06:41:09.820Z,977.36
2023-04-01T06:42:09.801Z,977.29
2023-04-01T06:43:09.784Z,977.34
2023-04-01T06:44:09.784Z,977.28
2023-04-01T06:45:09.751Z,977.23
2023-04-01T06:46:09.750Z,977.25
2023-04-01T06:47:09.717Z,977.24
2023-04-01T06:48:09.781Z,977.24
2023-04-01T06:49:09.680Z,977.25
2023-04-01T06:50:09.678Z,977.26
2023-04-01T06:51:09.678Z,977.32
2023-04-01T06:52:09.641Z,977.30
2023-04-01T06:53:09.615Z,977.30
2023-04-01T06:54:09.623Z,977.28
2023-04-01T06:55:09.594Z,977.30
2023-04-01T06:56:09.567Z,977.28
2023-04-01T06:57:09.597Z,977.22
2023-04-01T06:58:09.716Z,977.28
2023-04-01T06:59:09.545Z,977.29
2023-04-01T07:00:09.496Z,977.33
2023-04-01T07:01:09.509Z,977.23
2023-04-01T07:02:09.472Z,977.23
2023-04-01T07:03:09.469Z,977.33
2023-04-01T07:04:09.455Z,977.23
2023-04-01T07:59:18.414Z,977.42
2023-04-01T08:00:18.372Z,977.46
2023-04-01T08:01:18.355Z,977.47
2023-04-01T08:02:18.439Z,977.48
2023-04-01T08:03:18.434Z,977.50
2023-04-01T08:04:18.484Z,977.46
2023-04-01T08:05:18.625Z,977.47
2023-04-01T08:06:18.273Z,977.32
2023-04-01T08:07:18.254Z,977.42
2023-04-01T08:08:18.294Z,977.52
2023-04-01T08:09:18.239Z,977.52
2023-04-01T08:10:18.223Z,977.44
2023-04-01T08:11:18.189Z,977.48
2023-04-01T08:12:18.170Z,977.56
2023-04-01T08:13:18.155Z,977.51
2023-04-01T08:14:18.186Z,977.53
2023-04-01T08:15:18.131Z,977.56
2023-04-01T08:16:18.123Z,977.58
2023-04-01T08:17:18.104Z,977.58
2023-04-01T08:18:18.100Z,977.50
2023-04-01T08:19:18.107Z,977.52
2023-04-01T08:20:18.059Z,977.57
2023-04-01T08:21:18.093Z,977.52
2023-04-01T08:22:18.079Z,977.51
2023-04-01T08:23:17.993Z,977.51
2023-04-01T08:24:18.595Z,977.53
2023-04-01T08:25:17.956Z,977.57
2023-04-01T08:26:17.946Z,977.59
2023-04-01T08:27:17.921Z,977.62
2023-04-01T08:28:17.906Z,977.69
2023-04-01T08:29:17.892Z,977.66
2023-04-01T08:30:17.898Z,977.69
2023-04-01T08:31:17.896Z,977.68
2023-04-01T08:32:17.843Z,977.73
2023-04-01T08:33:17.826Z,977.73
2023-04-01T08:34:17.805Z,977.75
2023-04-01T08:35:17.790Z,977.71
2023-04-01T08:36:17.833Z,977.70
2023-04-01T08:37:17.757Z,977.65
2023-04-01T08:38:17.743Z,977.68
2023-04-01T08:39:17.722Z,977.74
2023-04-01T08:40:17.708Z,977.66
2023-04-01T08:41:17.693Z,977.66
2023-04-01T08:42:17.683Z,977.67
2023-04-01T08:43:17.692Z,977.66
2023-04-01T08:44:17.642Z,977.72
2023-04-01T08:45:17.621Z,977.73
2023-04-01T08:46:17.639Z,977.73
2023-04-01T08:47:17.945Z,977.67
2023-04-01T08:48:17.611Z,977.62
2023-04-01T08:49:17.570Z,977.68
2023-04-01T08:50:17.560Z,977.65
2023-04-01T08:51:17.546Z,977.67
2023-04-01T08:52:17.523Z,977.70
2023-04-01T08:53:17.496Z,977.65
2023-04-01T08:54:17.480Z,977.69
2023-04-01T08:55:17.471Z,977.71
2023-04-01T08:56:17.448Z,977.74
2023-04-01T08:57:17.528Z,977.67
2023-04-01T08:58:17.424Z,977.72
2023-04-01T08:59:17.434Z,977.74
2023-04-01T09:00:17.382Z,977.77
2023-04-01T09:01:17.381Z,977.77
2023-04-01T09:02:17.403Z,977.83
2023-04-01T09:03:17.427Z,977.80
2023-04-01T09:04:17.430Z,977.82
2023-04-01T09:05:17.304Z,977.80
2023-04-01T09:06:17.285Z,977.81
2023-04-01T09:07:17.275Z,977.74
2023-04-01T09:08:17.259Z,977.79
2023-04-01T09:09:17.238Z,977.78
2023-04-01T09:10:17.228Z,977.85
2023-04-01T09:11:17.203Z,977.82
2023-04-01T09:12:17.184Z,977.81
2023-04-01T09:13:17.195Z,977.79
2023-04-01T09:14:17.155Z,977.81
2023-04-01T09:15:17.142Z,977.82
2023-04-01T09:16:17.179Z,977.84
2023-04-01T09:17:17.104Z,977.82
2023-04-01T09:18:17.088Z,977.83
2023-04-01T09:19:17.084Z,977.85
2023-04-01T09:20:17.059Z,977.85
2023-04-01T09:21:17.229Z,977.89
2023-04-01T09:22:17.026Z,977.89
2023-04-01T09:23:17.003Z,977.87
2023-04-01T09:24:16.998Z,977.89
2023-04-01T09:25:16.979Z,977.94
2023-04-01T09:26:16.960Z,977.90
2023-04-01T09:27:16.941Z,977.85
2023-04-01T09:28:17.000Z,977.90
2023-04-01T09:29:16.930Z,977.91
2023-04-01T09:30:16.894Z,977.87
2023-04-01T09:31:16.935Z,977.92
2023-04-01T09:32:16.864Z,977.94
2023-04-01T09:33:17.022Z,978.02
2023-04-01T09:34:16.832Z,978.03
2023-04-01T09:35:16.820Z,977.99
2023-04-01T09:36:16.795Z,978.03
2023-04-01T09:37:16.781Z,977.99
2023-04-01T09:38:16.778Z,977.95
2023-04-01T09:39:16.749Z,978.01
2023-04-01T09:40:16.733Z,977.96
2023-04-01T09:41:16.715Z,977.98
2023-04-01T09:42:16.700Z,977.97
2023-04-01T09:43:16.727Z,978.01
2023-04-01T09:44:16.667Z,978.03
2023-04-01T09:45:16.653Z,978.01
2023-04-01T09:46:16.661Z,978.03
2023-04-01T09:47:16.622Z,978.01
2023-04-01T09:48:16.709Z,978.01
2023-04-01T09:49:16.584Z,978.01
2023-04-01T09:50:16.567Z,978.03
2023-04-01T09:51:16.552Z,978.07
2023-04-01T09:52:16.540Z,978.06
2023-04-01T09:53:16.520Z,978.04
2023-04-01T09:54:16.504Z,978.13
2023-04-01T09:55:16.483Z,978.10
2023-04-01T09:56:16.471Z,978.12
2023-04-01T09:57:16.487Z,978.16
2023-04-01T09:58:16.440Z,978.14
2023-04-01T09:59:16.417Z,978.14
2023-04-01T10:00:16.414Z,978.16
2023-04-01T10:01:16.414Z,978.17
2023-04-01T10:02:16.396Z,978.17
2023-04-01T10:03:16.501Z,978.16
2023-04-01T10:04:16.332Z,978.14
2023-04-01T10:05:16.343Z,978.16
2023-04-01T10:06:16.299Z,978.18
2023-04-01T10:07:16.289Z,978.13
2023-04-01T10:08:16.268Z,978.16
2023-04-01T10:09:16.268Z,978.15
2023-04-01T10:10:16.245Z,978.16
2023-04-01T10:11:16.215Z,978.13
2023-04-01T10:12:16.201Z,978.20
2023-04-01T10:13:16.186Z,978.25
2023-04-01T10:14:16.169Z,978.19
2023-04-01T10:15:16.149Z,978.22
2023-04-01T10:16:16.181Z,978.23
2023-04-01T10:17:16.129Z,978.24
2023-04-01T10:18:16.106Z,978.28
2023-04-01T10:19:16.096Z,978.26
2023-04-01T10:20:16.099Z,978.25
2023-04-01T10:21:16.065Z,978.24
2023-04-01T10:22:16.037Z,978.26
2023-04-01T10:23:16.023Z,978.26
2023-04-01T10:24:16.008Z,978.30
2023-04-01T10:25:15.989Z,978.27
2023-04-01T10:26:15.972Z,978.28
2023-04-01T10:27:15.949Z,978.24
2023-04-01T10:28:15.936Z,978.22
2023-04-01T10:29:15.923Z,978.27
2023-04-01T10:30:15.904Z,978.26
2023-04-01T10:31:15.943Z,978.28
2023-04-01T10:32:16.085Z,978.31
2023-04-01T10:33:15.854Z,978.25
2023-04-01T10:34:15.836Z,978.32
2023-04-01T10:35:15.813Z,978.27
2023-04-01T10:36:15.863Z,978.27
2023-04-01T10:37:15.785Z,978.24
2023-04-01T10:38:15.771Z,978.24
2023-04-01T10:39:15.757Z,978.27
2023-04-01T10:40:15.739Z,978.22
2023-04-01T10:41:15.716Z,978.20
2023-04-01T10:42:15.708Z,978.28
2023-04-01T10:43:15.711Z,978.21
2023-04-01T10:44:15.671Z,978.23
2023-04-01T10:45:15.655Z,978.18
2023-04-01T10:46:17.101Z,978.25
2023-04-01T10:47:15.617Z,978.22
2023-04-01T10:48:15.624Z,978.23
2023-04-01T10:49:15.604Z,978.25
2023-04-01T10:50:15.616Z,978.21
2023-04-01T10:51:15.559Z,978.20
2023-04-01T10:52:15.537Z,978.13
2023-04-01T10:53:15.523Z,978.21
2023-04-01T10:54:15.508Z,978.14
2023-04-01T10:55:15.504Z,978.15
2023-04-01T10:56:15.470Z,978.12
2023-04-01T10:57:15.515Z,978.17
2023-04-01T10:58:15.488Z,978.11
2023-04-01T10:59:15.423Z,978.26
2023-04-01T11:00:15.483Z,978.24
2023-04-01T11:01:15.475Z,978.18
2023-04-01T11:02:15.418Z,978.26
2023-04-01T11:03:15.443Z,978.26
2023-04-01T11:04:15.342Z,978.18
2023-04-01T11:05:15.333Z,978.21
2023-04-01T11:06:15.314Z,978.25
2023-04-01T11:07:15.302Z,978.26
2023-04-01T11:08:15.286Z,978.30
2023-04-01T11:09:15.266Z,978.26
2023-04-01T11:10:15.272Z,978.27
2023-04-01T11:11:15.232Z,978.26
2023-04-01T11:12:15.219Z,978.30
2023-04-01T11:13:15.197Z,978.22
2023-04-01T11:14:15.184Z,978.28
2023-04-01T11:15:15.167Z,978.35
2023-04-01T11:16:16.134Z,978.30
2023-04-01T11:17:15.140Z,978.30
2023-04-01T11:18:15.126Z,978.35
2023-04-01T11:19:15.113Z,978.35
2023-04-01T11:20:15.096Z,978.33
2023-04-01T11:21:15.070Z,978.41
2023-04-01T11:22:15.061Z,978.36
2023-04-01T11:23:15.047Z,978.37
2023-04-01T11:24:15.021Z,978.38
2023-04-01T11:25:15.017Z,978.38
2023-04-01T11:26:14.999Z,978.36
2023-04-01T11:27:15.034Z,978.38
2023-04-01T11:28:14.956Z,978.43
2023-04-01T11:29:14.945Z,978.35
2023-04-01T11:30:14.933Z,978.37
2023-04-01T11:31:14.932Z,978.38
2023-04-01T11:32:14.892Z,978.49
2023-04-01T11:33:14.880Z,978.44
2023-04-01T11:34:14.873Z,978.45
2023-04-01T11:35:14.846Z,978.53
2023-04-01T11:36:14.869Z,978.50
2023-04-01T11:37:14.820Z,978.48
2023-04-01T11:38:14.806Z,978.54
2023-04-01T11:39:14.792Z,978.52
2023-04-01T11:40:14.766Z,978.49
2023-04-01T11:41:14.759Z,978.48
2023-04-01T11:42:14.736Z,978.49
2023-04-01T11:43:22.943Z,978.45
2023-04-01T11:44:14.700Z,978.52
2023-04-01T11:45:14.687Z,978.56
2023-04-01T11:46:14.696Z,978.51
2023-04-01T11:47:14.664Z,978.45
2023-04-01T11:48:14.639Z,978.46
2023-04-01T11:49:14.622Z,978.53
2023-04-01T11:50:14.606Z,978.49
2023-04-01T11:51:14.596Z,978.47
2023-04-01T11:52:14.578Z,978.48
2023-04-01T11:53:14.566Z,978.47
2023-04-01T11:54:14.544Z,978.50
2023-04-01T11:55:14.610Z,978.53
2023-04-01T11:56:14.510Z,978.50
2023-04-01T11:57:14.566Z,978.53
2023-04-01T11:58:14.481Z,978.57
2023-04-01T11:59:14.464Z,978.55
2023-04-01T12:00:14.474Z,978.58
2023-04-01T12:01:14.434Z,978.55
2023-04-01T12:02:14.443Z,978.56
2023-04-01T12:03:14.503Z,978.60
2023-04-01T12:04:14.511Z,978.58
2023-04-01T12:05:14.374Z,978.69
2023-04-01T12:06:14.358Z,978.64
2023-04-01T12:07:14.359Z,978.69
2023-04-01T12:08:14.323Z,978.66
2023-04-01T12:09:14.310Z,978.73
2023-04-01T12:10:14.304Z,978.66
2023-04-01T12:11:14.271Z,978.72
2023-04-01T12:12:14.260Z,978.69
2023-04-01T12:13:14.243Z,978.74
2023-04-01T12:14:14.233Z,978.74
2023-04-01T12:15:14.222Z,978.77
2023-04-01T12:16:14.279Z,978.76
2023-04-01T12:17:14.195Z,978.74
2023-04-01T12:18:14.181Z,978.67
2023-04-01T12:19:14.147Z,978.74
2023-04-01T12:20:14.133Z,978.67
2023-04-01T12:21:14.116Z,978.71
2023-04-01T12:22:14.098Z,978.69
2023-04-01T12:23:14.088Z,978.76
2023-04-01T12:24:14.098Z,978.68
2023-04-01T12:25:14.047Z,978.67
2023-04-01T12:26:14.032Z,978.65
2023-04-01T12:27:14.015Z,978.64
2023-04-01T12:28:13.999Z,978.63
2023-04-01T12:29:13.998Z,978.54
2023-04-01T12:30:13.987Z,978.59
2023-04-01T12:31:13.956Z,978.53
2023-04-01T12:32:13.994Z,978.53
2023-04-01T12:33:13.995Z,978.54
2023-04-01T12:34:13.908Z,978.58
2023-04-01T12:35:13.906Z,978.61
2023-04-01T12:36:13.909Z,978.65
2023-04-01T12:37:13.880Z,978.67
2023-04-01T12:38:13.854Z,978.71
2023-04-01T12:39:13.825Z,978.69
2023-04-01T12:40:13.810Z,978.69
2023-04-01T12:41:13.791Z,978.72
2023-04-01T12:42:13.775Z,978.73
2023-04-01T12:43:13.774Z,978.78
2023-04-01T12:44:13.752Z,978.71
2023-04-01T12:45:14.079Z,978.78
2023-04-01T12:46:13.786Z,978.71
2023-04-01T12:47:13.713Z,978.79
2023-04-01T12:48:13.683Z,978.78
2023-04-01T12:49:13.667Z,978.75
2023-04-01T12:50:13.647Z,978.73
2023-04-01T12:51:13.639Z,978.75
2023-04-01T12:52:13.622Z,978.73
2023-04-01T12:53:13.599Z,978.72
2023-04-01T12:54:13.581Z,978.73
2023-04-01T12:55:13.566Z,978.75
2023-04-01T12:56:13.549Z,978.65
2023-04-01T12:57:13.604Z,978.70
2023-04-01T12:58:13.518Z,978.70
2023-04-01T12:59:13.505Z,978.71
2023-04-01T13:00:13.491Z,978.75
2023-04-01T13:01:13.525Z,978.67
2023-04-01T13:02:13.456Z,978.79
2023-04-01T13:03:13.440Z,978.73
2023-04-01T13:04:13.477Z,978.75
2023-04-01T13:05:13.462Z,978.76
2023-04-01T13:06:13.393Z,978.73
2023-04-01T13:07:13.376Z,978.81
2023-04-01T13:08:13.358Z,978.76
2023-04-01T13:09:13.345Z,978.80
2023-04-01T13:10:13.339Z,978.88
2023-04-01T13:11:13.318Z,978.87
2023-04-01T13:12:13.302Z,978.83
2023-04-01T13:13:13.287Z,978.84
2023-04-01T13:14:24.962Z,978.86
2023-04-01T13:15:13.257Z,978.92
2023-04-01T13:16:13.316Z,978.93
2023-04-01T13:17:13.229Z,978.92
2023-04-01T13:18:13.220Z,978.88
2023-04-01T13:19:13.191Z,978.88
2023-04-01T13:20:13.184Z,978.90
2023-04-01T13:21:13.167Z,978.95
2023-04-01T13:22:13.146Z,978.95
2023-04-01T13:23:13.131Z,978.94
2023-04-01T13:24:13.109Z,978.97
2023-04-01T13:25:13.106Z,978.99
2023-04-01T13:26:14.982Z,978.96
2023-04-01T13:27:13.063Z,979.03
2023-04-01T13:28:13.047Z,979.03
2023-04-01T13:29:21.768Z,978.99
2023-04-01T13:31:17.658Z,979.05
2023-04-01T13:32:17.555Z,979.08
2023-04-01T13:34:21.924Z,979.12
2023-04-01T13:35:21.875Z,979.12